Terminal Aerodrome Forecast
Issued by NWS

Home | Current Version | Previous Version | Text Only | Print | Product List | Glossary On
Versions: 1 2 3 4 5 6 7 8 9 10 11 12 13 14 15 16 17 18 19 20 21 22 23 24 25
000
FTUS44 KLZK 201700
TAFHRO
TAF
KHRO 201733Z 2018/2118 22008KT P6SM BKN045
     FM210100 23005KT P6SM FEW040 SCT250
     FM211000 25005KT P6SM VCSH SCT050 SCT100 BKN250
      TEMPO 2110/2113 3SM BR SCT005
     FM211300 27007KT P6SM VCTS SCT050CB OVC150=

USA.gov is the U.S. government's official web portal to all federal, state and local government web resources and services.